createdAt,value
2023-03-02T00:00:10.000Z,83
2023-03-02T00:02:13.000Z,83
2023-03-02T00:03:38.000Z,84
2023-03-02T00:05:41.000Z,83
2023-03-02T00:07:06.000Z,84
2023-03-02T00:09:09.000Z,83
2023-03-02T00:10:34.000Z,84
2023-03-02T00:12:37.000Z,83
2023-03-02T00:14:02.000Z,84
2023-03-02T00:16:05.000Z,84
2023-03-02T00:17:30.000Z,83
2023-03-02T00:19:33.000Z,84
2023-03-02T00:22:22.000Z,83
2023-03-02T00:23:47.000Z,83
2023-03-02T00:25:50.000Z,82
2023-03-02T00:27:15.000Z,83
2023-03-02T00:29:18.000Z,82
2023-03-02T00:30:43.000Z,83
2023-03-02T00:32:46.000Z,83
2023-03-02T00:34:11.000Z,83
2023-03-02T00:36:14.000Z,83
2023-03-02T00:37:38.000Z,83
2023-03-02T00:39:42.000Z,84
2023-03-02T00:41:06.000Z,83
2023-03-02T00:43:10.000Z,83
2023-03-02T00:44:35.000Z,84
2023-03-02T00:46:38.000Z,84
2023-03-02T00:48:03.000Z,84
2023-03-02T00:50:06.000Z,84
2023-03-02T00:51:30.000Z,84
2023-03-02T00:53:34.000Z,84
2023-03-02T00:54:58.000Z,85
2023-03-02T00:57:02.000Z,85
2023-03-02T00:59:51.000Z,85
2023-03-02T01:01:16.000Z,85
2023-03-02T01:03:22.000Z,85
2023-03-02T01:04:46.000Z,85
2023-03-02T01:06:50.000Z,84
2023-03-02T01:08:14.000Z,85
2023-03-02T01:10:18.000Z,84
2023-03-02T01:11:42.000Z,83
2023-03-02T01:13:45.000Z,83
2023-03-02T01:15:10.000Z,83
2023-03-02T01:17:13.000Z,82
2023-03-02T01:18:38.000Z,82
2023-03-02T01:20:41.000Z,82
2023-03-02T01:22:06.000Z,82
2023-03-02T01:24:09.000Z,82
2023-03-02T01:25:34.000Z,82
2023-03-02T01:27:37.000Z,82
2023-03-02T01:29:02.000Z,82
2023-03-02T01:31:05.000Z,82
2023-03-02T01:32:30.000Z,82
2023-03-02T01:34:33.000Z,82
2023-03-02T01:38:55.000Z,83
2023-03-02T01:40:48.000Z,83
2023-03-02T01:42:12.000Z,83
2023-03-02T01:44:16.000Z,83
2023-03-02T01:45:40.000Z,84
2023-03-02T01:47:44.000Z,83
2023-03-02T01:49:08.000Z,83
2023-03-02T01:51:11.000Z,82
2023-03-02T01:52:36.000Z,82
2023-03-02T01:54:39.000Z,82
2023-03-02T01:56:04.000Z,83
2023-03-02T01:58:07.000Z,82
2023-03-02T01:59:32.000Z,83
2023-03-02T02:01:35.000Z,82
2023-03-02T02:02:59.000Z,81
2023-03-02T02:05:03.000Z,81
2023-03-02T02:06:27.000Z,81
2023-03-02T02:08:31.000Z,81
2023-03-02T02:09:55.000Z,80
2023-03-02T02:11:59.000Z,80
2023-03-02T02:13:23.000Z,80
2023-03-02T02:15:27.000Z,80
2023-03-02T02:18:16.000Z,80
2023-03-02T02:19:40.000Z,80
2023-03-02T02:21:44.000Z,80
2023-03-02T02:23:08.000Z,81
2023-03-02T02:25:12.000Z,80
2023-03-02T02:26:36.000Z,80
2023-03-02T02:28:40.000Z,80
2023-03-02T02:30:04.000Z,81
2023-03-02T02:32:08.000Z,81
2023-03-02T02:33:32.000Z,81
2023-03-02T02:35:36.000Z,81
2023-03-02T02:37:00.000Z,81
2023-03-02T02:39:04.000Z,81
2023-03-02T02:40:29.000Z,81
2023-03-02T02:42:32.000Z,81
2023-03-02T02:43:56.000Z,81
2023-03-02T02:46:00.000Z,82
2023-03-02T02:47:24.000Z,81
2023-03-02T02:49:28.000Z,81
2023-03-02T02:50:52.000Z,81
2023-03-02T02:52:56.000Z,81
2023-03-02T02:55:45.000Z,81
2023-03-02T02:57:10.000Z,81
2023-03-02T02:59:13.000Z,81
2023-03-02T03:00:38.000Z,81
2023-03-02T03:02:41.000Z,82
2023-03-02T03:04:05.000Z,81
2023-03-02T03:06:09.000Z,82
2023-03-02T03:07:33.000Z,82
2023-03-02T03:09:37.000Z,82
2023-03-02T03:11:02.000Z,83
2023-03-02T03:13:05.000Z,83
2023-03-02T03:14:29.000Z,83
2023-03-02T03:16:33.000Z,83
2023-03-02T03:17:58.000Z,83
2023-03-02T03:20:02.000Z,83
2023-03-02T03:21:26.000Z,83
2023-03-02T03:23:30.000Z,83
2023-03-02T03:24:54.000Z,83
2023-03-02T03:26:58.000Z,83
2023-03-02T03:28:22.000Z,83
2023-03-02T03:30:26.000Z,83
2023-03-02T03:33:15.000Z,82
2023-03-02T03:34:39.000Z,83
2023-03-02T03:36:43.000Z,83
2023-03-02T03:38:07.000Z,83
2023-03-02T03:40:11.000Z,83
2023-03-02T03:41:35.000Z,83
2023-03-02T03:43:39.000Z,84
2023-03-02T03:45:03.000Z,84
2023-03-02T03:47:07.000Z,84
2023-03-02T03:48:31.000Z,84
2023-03-02T03:50:35.000Z,84
2023-03-02T03:51:59.000Z,84
2023-03-02T03:54:02.000Z,84
2023-03-02T03:55:27.000Z,84
2023-03-02T03:57:30.000Z,84
2023-03-02T03:58:55.000Z,84
2023-03-02T04:00:58.000Z,84
2023-03-02T04:02:23.000Z,84
2023-03-02T04:04:27.000Z,85
2023-03-02T04:05:51.000Z,84
2023-03-02T04:07:54.000Z,84
2023-03-02T04:10:44.000Z,84
2023-03-02T04:12:08.000Z,84
2023-03-02T04:14:12.000Z,85
2023-03-02T04:15:36.000Z,84
2023-03-02T04:17:39.000Z,84
2023-03-02T04:19:04.000Z,85
2023-03-02T04:21:07.000Z,85
2023-03-02T04:22:32.000Z,85
2023-03-02T04:24:35.000Z,85
2023-03-02T04:26:00.000Z,85
2023-03-02T04:28:03.000Z,85
2023-03-02T04:29:27.000Z,85
2023-03-02T04:31:31.000Z,86
2023-03-02T04:32:55.000Z,85
2023-03-02T04:34:59.000Z,85
2023-03-02T04:36:23.000Z,85
2023-03-02T04:38:27.000Z,85
2023-03-02T04:39:51.000Z,85
2023-03-02T04:41:55.000Z,85
2023-03-02T04:43:19.000Z,84
2023-03-02T04:45:23.000Z,84
2023-03-02T04:48:12.000Z,84
2023-03-02T04:49:36.000Z,84
2023-03-02T04:51:40.000Z,84
2023-03-02T04:53:04.000Z,84
2023-03-02T04:55:08.000Z,84
2023-03-02T04:56:32.000Z,84
2023-03-02T04:58:36.000Z,84
2023-03-02T05:00:01.000Z,84
2023-03-02T05:02:04.000Z,84
2023-03-02T05:03:29.000Z,85
2023-03-02T05:05:32.000Z,85
2023-03-02T05:06:57.000Z,85
2023-03-02T05:09:00.000Z,85
2023-03-02T05:10:24.000Z,84
2023-03-02T05:12:28.000Z,84
2023-03-02T05:13:52.000Z,84
2023-03-02T05:15:56.000Z,85
2023-03-02T05:17:21.000Z,84
2023-03-02T05:19:24.000Z,84
2023-03-02T05:20:49.000Z,85
2023-03-02T05:22:52.000Z,85
2023-03-02T05:25:41.000Z,85
2023-03-02T05:27:06.000Z,85
2023-03-02T05:29:09.000Z,84
2023-03-02T05:30:34.000Z,85
2023-03-02T05:32:37.000Z,85
2023-03-02T05:34:02.000Z,85
2023-03-02T05:36:05.000Z,84
2023-03-02T05:37:29.000Z,84
2023-03-02T05:39:33.000Z,84
2023-03-02T05:40:57.000Z,84
2023-03-02T05:43:01.000Z,84
2023-03-02T05:44:25.000Z,84
2023-03-02T05:46:29.000Z,85
2023-03-02T05:47:53.000Z,85
2023-03-02T05:49:57.000Z,84
2023-03-02T05:51:21.000Z,84
2023-03-02T05:53:25.000Z,84
2023-03-02T05:54:49.000Z,84
2023-03-02T05:56:53.000Z,85
2023-03-02T05:58:17.000Z,84
2023-03-02T06:00:21.000Z,84
2023-03-02T06:03:10.000Z,84
2023-03-02T06:04:34.000Z,84
2023-03-02T06:06:38.000Z,84
2023-03-02T06:08:03.000Z,84
2023-03-02T06:10:06.000Z,85
2023-03-02T06:11:31.000Z,84
2023-03-02T06:13:34.000Z,84
2023-03-02T06:14:59.000Z,84
2023-03-02T06:17:02.000Z,85
2023-03-02T06:18:26.000Z,84
2023-03-02T06:20:30.000Z,85
2023-03-02T06:21:54.000Z,85
2023-03-02T06:23:58.000Z,84
2023-03-02T06:25:22.000Z,85
2023-03-02T06:27:26.000Z,84
2023-03-02T06:28:50.000Z,84
2023-03-02T06:30:57.000Z,84
2023-03-02T06:32:21.000Z,85
2023-03-02T06:34:25.000Z,84
2023-03-02T06:35:49.000Z,84
2023-03-02T06:37:53.000Z,85
2023-03-02T06:42:14.000Z,84
2023-03-02T06:44:07.000Z,84
2023-03-02T06:45:31.000Z,84
2023-03-02T06:47:35.000Z,84
2023-03-02T06:48:59.000Z,84
2023-03-02T06:51:03.000Z,85
2023-03-02T06:52:27.000Z,84
2023-03-02T06:54:31.000Z,84
2023-03-02T06:55:55.000Z,84
2023-03-02T06:57:59.000Z,83
2023-03-02T06:59:23.000Z,84
2023-03-02T07:01:26.000Z,83
2023-03-02T07:02:51.000Z,83
2023-03-02T07:04:54.000Z,82
2023-03-02T07:06:19.000Z,82
2023-03-02T07:08:22.000Z,82
2023-03-02T07:09:47.000Z,80
2023-03-02T07:11:50.000Z,81
2023-03-02T07:13:15.000Z,80
2023-03-02T07:15:18.000Z,80
2023-03-02T07:16:42.000Z,80
2023-03-02T07:18:46.000Z,80
2023-03-02T07:21:35.000Z,80
2023-03-02T07:23:00.000Z,81
2023-03-02T07:25:03.000Z,81
2023-03-02T07:26:27.000Z,80
2023-03-02T07:28:31.000Z,81
2023-03-02T07:29:55.000Z,81
2023-03-02T07:31:59.000Z,79
2023-03-02T07:33:23.000Z,79
2023-03-02T07:35:27.000Z,78
2023-03-02T07:36:51.000Z,79
2023-03-02T07:38:55.000Z,78
2023-03-02T07:40:19.000Z,78
2023-03-02T07:42:23.000Z,79
2023-03-02T07:43:47.000Z,78
2023-03-02T07:45:51.000Z,78
2023-03-02T07:47:15.000Z,78
2023-03-02T07:49:19.000Z,78
2023-03-02T07:50:43.000Z,77
2023-03-02T07:52:46.000Z,77
2023-03-02T07:54:11.000Z,76
2023-03-02T07:56:14.000Z,74
2023-03-02T07:59:04.000Z,77
2023-03-02T08:00:28.000Z,75
2023-03-02T08:02:32.000Z,76
2023-03-02T08:03:57.000Z,77
2023-03-02T08:06:00.000Z,76
2023-03-02T08:07:24.000Z,74
2023-03-02T08:09:28.000Z,76
2023-03-02T08:10:52.000Z,75
2023-03-02T08:12:56.000Z,75
2023-03-02T08:14:21.000Z,72
2023-03-02T08:16:24.000Z,74
2023-03-02T08:17:49.000Z,74
2023-03-02T08:19:53.000Z,73
2023-03-02T08:21:18.000Z,73
2023-03-02T08:24:55.000Z,76
2023-03-02T08:27:09.000Z,71
2023-03-02T08:28:35.000Z,73
2023-03-02T08:30:42.000Z,72
2023-03-02T08:32:08.000Z,72
2023-03-02T08:34:14.000Z,73
2023-03-02T08:35:41.000Z,72
2023-03-02T08:37:47.000Z,70
2023-03-02T08:39:14.000Z,70
2023-03-02T08:41:20.000Z,72
2023-03-02T08:42:46.000Z,70
2023-03-02T08:44:52.000Z,72
2023-03-02T08:46:19.000Z,70
2023-03-02T08:48:25.000Z,68
2023-03-02T08:49:52.000Z,71
2023-03-02T08:51:58.000Z,69
2023-03-02T08:53:24.000Z,68
2023-03-02T08:55:30.000Z,70
2023-03-02T08:56:57.000Z,68
2023-03-02T08:59:03.000Z,69
2023-03-02T09:00:30.000Z,70
2023-03-02T09:02:37.000Z,65
2023-03-02T09:05:29.000Z,68
2023-03-02T09:06:55.000Z,67
2023-03-02T09:09:01.000Z,70
2023-03-02T09:10:28.000Z,68
2023-03-02T09:12:34.000Z,67
2023-03-02T09:14:01.000Z,67
2023-03-02T09:16:07.000Z,67
2023-03-02T09:17:33.000Z,68
2023-03-02T09:19:39.000Z,68
2023-03-02T09:21:08.000Z,69
2023-03-02T09:23:14.000Z,68
2023-03-02T09:24:41.000Z,67
2023-03-02T09:26:47.000Z,68
2023-03-02T09:28:14.000Z,67
2023-03-02T09:30:20.000Z,68
2023-03-02T09:31:46.000Z,67
2023-03-02T09:33:53.000Z,66
2023-03-02T09:35:19.000Z,64
2023-03-02T09:37:25.000Z,64
2023-03-02T09:38:52.000Z,66
2023-03-02T09:40:58.000Z,65
2023-03-02T09:43:49.000Z,66
2023-03-02T09:45:16.000Z,63
2023-03-02T09:47:22.000Z,64
2023-03-02T09:49:01.000Z,64
2023-03-02T09:51:09.000Z,62
2023-03-02T09:52:36.000Z,65
2023-03-02T09:54:42.000Z,63
2023-03-02T10:00:57.000Z,59
2023-03-02T10:02:23.000Z,63
2023-03-02T10:04:29.000Z,62
2023-03-02T10:05:56.000Z,62
2023-03-02T10:08:02.000Z,62
2023-03-02T10:09:29.000Z,60
2023-03-02T10:11:35.000Z,62
2023-03-02T10:13:01.000Z,60
2023-03-02T10:15:08.000Z,59
2023-03-02T10:16:34.000Z,59
2023-03-02T10:18:41.000Z,61
2023-03-02T10:20:07.000Z,61
2023-03-02T10:22:14.000Z,60
2023-03-02T10:23:40.000Z,61
2023-03-02T10:25:47.000Z,59
2023-03-02T10:27:13.000Z,59
2023-03-02T10:29:19.000Z,59
2023-03-02T10:30:46.000Z,60
2023-03-02T10:32:52.000Z,58
2023-03-02T10:34:18.000Z,59
2023-03-02T10:36:24.000Z,57
2023-03-02T10:39:16.000Z,56
2023-03-02T10:40:42.000Z,59
2023-03-02T10:42:48.000Z,59
2023-03-02T10:44:15.000Z,57
2023-03-02T10:46:21.000Z,55
2023-03-02T10:47:48.000Z,58
2023-03-02T10:49:54.000Z,58
2023-03-02T10:51:20.000Z,56
2023-03-02T10:53:27.000Z,59
2023-03-02T10:54:53.000Z,58
2023-03-02T10:56:59.000Z,58
2023-03-02T10:58:26.000Z,57
2023-03-02T11:00:32.000Z,56
2023-03-02T11:01:58.000Z,58
2023-03-02T11:04:05.000Z,58
2023-03-02T11:05:31.000Z,57
2023-03-02T11:07:37.000Z,58
2023-03-02T11:09:04.000Z,57
2023-03-02T11:11:10.000Z,59
2023-03-02T11:12:36.000Z,58
2023-03-02T11:14:43.000Z,57
2023-03-02T11:17:34.000Z,57
2023-03-02T11:19:00.000Z,55
2023-03-02T11:21:06.000Z,57
2023-03-02T11:22:33.000Z,58
2023-03-02T11:24:39.000Z,59
2023-03-02T11:26:06.000Z,58
2023-03-02T11:28:12.000Z,57
2023-03-02T11:29:38.000Z,58
2023-03-02T11:31:44.000Z,57
2023-03-02T11:33:11.000Z,55
2023-03-02T11:35:17.000Z,57
2023-03-02T11:36:44.000Z,57
2023-03-02T11:38:50.000Z,56
2023-03-02T11:40:17.000Z,57
2023-03-02T11:42:23.000Z,57
2023-03-02T11:43:49.000Z,55
2023-03-02T11:45:56.000Z,57
2023-03-02T11:47:22.000Z,56
2023-03-02T11:49:28.000Z,56
2023-03-02T11:50:55.000Z,57
2023-03-02T11:53:01.000Z,56
2023-03-02T11:55:52.000Z,56
2023-03-02T11:57:19.000Z,57
2023-03-02T11:59:25.000Z,56
2023-03-02T12:00:55.000Z,56
2023-03-02T12:03:01.000Z,56
2023-03-02T12:04:27.000Z,57
2023-03-02T12:06:33.000Z,55
2023-03-02T12:08:00.000Z,55
2023-03-02T12:10:06.000Z,56
2023-03-02T12:11:33.000Z,56
2023-03-02T12:13:39.000Z,55
2023-03-02T12:15:06.000Z,56
2023-03-02T12:17:12.000Z,56
2023-03-02T12:18:38.000Z,55
2023-03-02T12:20:44.000Z,57
2023-03-02T12:22:11.000Z,56
2023-03-02T12:24:17.000Z,54
2023-03-02T12:25:44.000Z,56
2023-03-02T12:27:50.000Z,55
2023-03-02T12:29:17.000Z,55
2023-03-02T12:31:23.000Z,56
2023-03-02T12:34:14.000Z,56
2023-03-02T12:35:41.000Z,55
2023-03-02T12:37:47.000Z,55
2023-03-02T12:39:13.000Z,55
2023-03-02T12:41:20.000Z,57
2023-03-02T12:42:46.000Z,56
2023-03-02T12:44:52.000Z,56
2023-03-02T12:46:19.000Z,55
2023-03-02T12:48:25.000Z,54
2023-03-02T12:49:52.000Z,55
2023-03-02T12:51:58.000Z,56
2023-03-02T12:53:25.000Z,56
2023-03-02T12:55:31.000Z,55
2023-03-02T12:56:58.000Z,53
2023-03-02T12:59:04.000Z,54
2023-03-02T13:00:31.000Z,55
2023-03-02T13:02:37.000Z,56
2023-03-02T13:04:03.000Z,54
2023-03-02T13:06:09.000Z,54
2023-03-02T13:07:36.000Z,54
2023-03-02T13:09:42.000Z,53
2023-03-02T13:12:47.000Z,53
2023-03-02T13:14:13.000Z,51
2023-03-02T13:16:20.000Z,53
2023-03-02T13:17:46.000Z,54
2023-03-02T13:19:52.000Z,54
2023-03-02T13:21:19.000Z,51
2023-03-02T13:23:25.000Z,51
2023-03-02T13:24:52.000Z,53
2023-03-02T13:26:58.000Z,53
2023-03-02T13:28:24.000Z,52
2023-03-02T13:30:30.000Z,50
2023-03-02T13:31:57.000Z,50
2023-03-02T13:34:03.000Z,52
2023-03-02T13:35:30.000Z,50
2023-03-02T13:37:36.000Z,50
2023-03-02T13:39:02.000Z,50
2023-03-02T13:41:08.000Z,51
2023-03-02T13:42:37.000Z,51
2023-03-02T13:44:43.000Z,47
2023-03-02T13:46:09.000Z,50
2023-03-02T13:48:16.000Z,48
2023-03-02T13:51:07.000Z,48
2023-03-02T13:52:34.000Z,47
2023-03-02T13:54:40.000Z,47
2023-03-02T13:56:07.000Z,48
2023-03-02T13:58:13.000Z,48
2023-03-02T13:59:39.000Z,47
2023-03-02T14:01:45.000Z,48
2023-03-02T14:03:12.000Z,46
2023-03-02T14:05:18.000Z,47
2023-03-02T14:06:45.000Z,48
2023-03-02T14:08:51.000Z,48
2023-03-02T14:10:18.000Z,48
2023-03-02T14:12:24.000Z,48
2023-03-02T14:13:50.000Z,48
2023-03-02T14:15:57.000Z,45
2023-03-02T14:17:23.000Z,48
2023-03-02T14:19:29.000Z,48
2023-03-02T14:20:56.000Z,49
2023-03-02T14:23:02.000Z,48
2023-03-02T14:24:29.000Z,47
2023-03-02T14:26:35.000Z,46
2023-03-02T14:29:26.000Z,45
2023-03-02T14:30:53.000Z,47
2023-03-02T14:32:59.000Z,46
2023-03-02T14:34:26.000Z,46
2023-03-02T14:36:32.000Z,43
2023-03-02T14:37:58.000Z,45
2023-03-02T14:40:05.000Z,45
2023-03-02T14:41:31.000Z,46
2023-03-02T14:43:46.000Z,44
2023-03-02T14:45:13.000Z,41
2023-03-02T14:47:19.000Z,44
2023-03-02T14:48:46.000Z,42
2023-03-02T14:50:52.000Z,45
2023-03-02T14:52:19.000Z,44
2023-03-02T14:54:25.000Z,43
2023-03-02T14:55:51.000Z,45
2023-03-02T14:57:58.000Z,42
2023-03-02T14:59:24.000Z,43
2023-03-02T15:01:30.000Z,44
2023-03-02T15:02:57.000Z,44
2023-03-02T15:05:04.000Z,43
2023-03-02T15:07:55.000Z,43
2023-03-02T15:09:24.000Z,42
2023-03-02T15:11:30.000Z,42
2023-03-02T15:12:58.000Z,41
2023-03-02T15:15:04.000Z,42
2023-03-02T15:16:30.000Z,42
2023-03-02T15:18:37.000Z,41
2023-03-02T15:20:03.000Z,40
2023-03-02T15:22:09.000Z,42
2023-03-02T15:23:36.000Z,40
2023-03-02T15:25:42.000Z,39
2023-03-02T15:27:08.000Z,39
2023-03-02T15:29:15.000Z,40
2023-03-02T15:30:41.000Z,39
2023-03-02T15:32:48.000Z,37
2023-03-02T15:34:14.000Z,39
2023-03-02T15:36:20.000Z,38
2023-03-02T15:37:47.000Z,39
2023-03-02T15:39:53.000Z,39
2023-03-02T15:41:19.000Z,40
2023-03-02T15:43:25.000Z,40
2023-03-02T15:46:17.000Z,40
2023-03-02T15:47:43.000Z,40
2023-03-02T15:49:49.000Z,38
2023-03-02T15:51:16.000Z,39
2023-03-02T15:53:22.000Z,35
2023-03-02T15:54:48.000Z,36
2023-03-02T15:56:55.000Z,39
2023-03-02T15:58:21.000Z,38
2023-03-02T16:00:27.000Z,37
2023-03-02T16:01:54.000Z,39
2023-03-02T16:04:00.000Z,40
2023-03-02T16:05:26.000Z,38
2023-03-02T16:07:33.000Z,40
2023-03-02T16:08:59.000Z,37
2023-03-02T16:11:05.000Z,41
2023-03-02T16:12:32.000Z,40
2023-03-02T16:14:38.000Z,39
2023-03-02T16:16:05.000Z,37
2023-03-02T16:18:11.000Z,39
2023-03-02T16:19:37.000Z,41
2023-03-02T16:21:43.000Z,36
2023-03-02T16:24:34.000Z,43
2023-03-02T16:26:01.000Z,44
2023-03-02T16:28:07.000Z,41
2023-03-02T16:29:34.000Z,43
2023-03-02T16:31:40.000Z,39
2023-03-02T16:33:07.000Z,41
2023-03-02T16:35:13.000Z,44
2023-03-02T16:36:39.000Z,42
2023-03-02T16:38:45.000Z,42
2023-03-02T16:40:12.000Z,40
2023-03-02T16:42:18.000Z,40
2023-03-02T16:43:44.000Z,43
2023-03-02T16:45:50.000Z,46
2023-03-02T16:47:17.000Z,42
2023-03-02T16:49:23.000Z,44
2023-03-02T16:50:50.000Z,43
2023-03-02T16:52:56.000Z,46
2023-03-02T16:54:23.000Z,45
2023-03-02T16:56:29.000Z,44
2023-03-02T16:57:55.000Z,45
2023-03-02T17:00:01.000Z,46
2023-03-02T17:02:53.000Z,46
2023-03-02T17:04:19.000Z,48
2023-03-02T17:06:25.000Z,49
2023-03-02T17:07:52.000Z,48
2023-03-02T17:09:58.000Z,49
2023-03-02T17:11:24.000Z,47
2023-03-02T17:13:31.000Z,47
2023-03-02T17:14:57.000Z,48
2023-03-02T17:17:03.000Z,46
2023-03-02T17:18:30.000Z,48
2023-03-02T17:20:36.000Z,48
2023-03-02T17:22:03.000Z,50
2023-03-02T17:24:09.000Z,54
2023-03-02T17:25:35.000Z,50
2023-03-02T17:27:41.000Z,50
2023-03-02T17:29:08.000Z,53
2023-03-02T17:31:14.000Z,51
2023-03-02T17:32:41.000Z,54
2023-03-02T17:34:47.000Z,51
2023-03-02T17:36:13.000Z,52
2023-03-02T17:38:20.000Z,55
2023-03-02T17:41:11.000Z,53
2023-03-02T17:42:37.000Z,55
2023-03-02T17:44:45.000Z,57
2023-03-02T17:46:11.000Z,55
2023-03-02T17:48:18.000Z,58
2023-03-02T17:49:44.000Z,57
2023-03-02T17:51:50.000Z,55
2023-03-02T17:53:17.000Z,56
2023-03-02T17:55:23.000Z,56
2023-03-02T17:56:49.000Z,58
2023-03-02T17:58:55.000Z,56
2023-03-02T18:00:22.000Z,55
2023-03-02T18:02:28.000Z,57
2023-03-02T18:03:55.000Z,57
2023-03-02T18:06:01.000Z,58
2023-03-02T18:07:27.000Z,56
2023-03-02T18:09:33.000Z,57
2023-03-02T18:11:00.000Z,57
2023-03-02T18:13:06.000Z,57
2023-03-02T18:14:33.000Z,58
2023-03-02T18:16:39.000Z,58
2023-03-02T18:19:30.000Z,58
2023-03-02T18:20:57.000Z,59
2023-03-02T18:23:03.000Z,58
2023-03-02T18:24:29.000Z,59
2023-03-02T18:26:35.000Z,60
2023-03-02T18:28:02.000Z,60
2023-03-02T18:30:08.000Z,59
2023-03-02T18:31:34.000Z,60
2023-03-02T18:33:41.000Z,61
2023-03-02T18:35:07.000Z,61
2023-03-02T18:37:13.000Z,61
2023-03-02T18:38:40.000Z,61
2023-03-02T18:40:46.000Z,62
2023-03-02T18:42:12.000Z,62
2023-03-02T18:44:19.000Z,63
2023-03-02T18:45:45.000Z,63
2023-03-02T18:47:51.000Z,63
2023-03-02T18:49:18.000Z,63
2023-03-02T18:51:24.000Z,64
2023-03-02T18:52:50.000Z,64
2023-03-02T18:54:57.000Z,63
2023-03-02T18:57:48.000Z,65
2023-03-02T18:59:14.000Z,65
2023-03-02T19:01:21.000Z,65
2023-03-02T19:02:47.000Z,66
2023-03-02T19:04:53.000Z,65
2023-03-02T19:06:20.000Z,66
2023-03-02T19:08:26.000Z,66
2023-03-02T19:09:53.000Z,66
2023-03-02T19:11:59.000Z,66
2023-03-02T19:13:26.000Z,67
2023-03-02T19:15:32.000Z,67
2023-03-02T19:16:58.000Z,66
2023-03-02T19:19:04.000Z,64
2023-03-02T19:20:31.000Z,65
2023-03-02T19:22:37.000Z,67
2023-03-02T19:24:03.000Z,67
2023-03-02T19:26:09.000Z,67
2023-03-02T19:27:36.000Z,66
2023-03-02T19:29:42.000Z,67
2023-03-02T19:31:09.000Z,66
2023-03-02T19:33:15.000Z,67
2023-03-02T19:36:06.000Z,67
2023-03-02T19:37:33.000Z,68
2023-03-02T19:39:39.000Z,68
2023-03-02T19:41:05.000Z,70
2023-03-02T19:43:12.000Z,69
2023-03-02T19:44:38.000Z,69
2023-03-02T19:46:44.000Z,71
2023-03-02T19:48:11.000Z,72
2023-03-02T19:50:17.000Z,72
2023-03-02T19:51:43.000Z,72
2023-03-02T19:53:50.000Z,73
2023-03-02T19:55:16.000Z,73
2023-03-02T19:57:22.000Z,71
2023-03-02T19:58:49.000Z,71
2023-03-02T20:00:55.000Z,72
2023-03-02T20:02:22.000Z,72
2023-03-02T20:04:28.000Z,72
2023-03-02T20:05:54.000Z,73
2023-03-02T20:08:00.000Z,73
2023-03-02T20:09:27.000Z,74
2023-03-02T20:11:33.000Z,74
2023-03-02T20:14:24.000Z,74
2023-03-02T20:16:00.000Z,74
2023-03-02T20:18:06.000Z,73
2023-03-02T20:19:32.000Z,74
2023-03-02T20:21:39.000Z,74
2023-03-02T20:23:05.000Z,76
2023-03-02T20:25:11.000Z,75
2023-03-02T20:26:38.000Z,76
2023-03-02T20:28:44.000Z,76
2023-03-02T20:30:10.000Z,76
2023-03-02T20:32:17.000Z,76
2023-03-02T20:33:43.000Z,77
2023-03-02T20:35:50.000Z,76
2023-03-02T20:37:16.000Z,75
2023-03-02T20:39:22.000Z,76
2023-03-02T20:40:49.000Z,76
2023-03-02T20:42:55.000Z,76
2023-03-02T20:44:21.000Z,78
2023-03-02T20:46:27.000Z,78
2023-03-02T20:47:54.000Z,79
2023-03-02T20:49:59.000Z,79
2023-03-02T20:52:49.000Z,78
2023-03-02T20:54:14.000Z,78
2023-03-02T20:56:17.000Z,77
2023-03-02T20:57:42.000Z,78
2023-03-02T20:59:46.000Z,80
2023-03-02T21:01:11.000Z,83
2023-03-02T21:04:49.000Z,80
2023-03-02T21:06:43.000Z,81
2023-03-02T21:08:08.000Z,80
2023-03-02T21:10:12.000Z,81
2023-03-02T21:11:38.000Z,83
2023-03-02T21:13:43.000Z,81
2023-03-02T21:15:10.000Z,84
2023-03-02T21:17:16.000Z,81
2023-03-02T21:18:43.000Z,81
2023-03-02T21:20:49.000Z,80
2023-03-02T21:22:15.000Z,81
2023-03-02T21:24:19.000Z,81
2023-03-02T21:25:44.000Z,81
2023-03-02T21:27:48.000Z,79
2023-03-02T21:29:12.000Z,82
2023-03-02T21:31:16.000Z,81
2023-03-02T21:32:41.000Z,81
2023-03-02T21:34:44.000Z,82
2023-03-02T21:36:09.000Z,81
2023-03-02T21:38:12.000Z,81
2023-03-02T21:39:37.000Z,81
2023-03-02T21:41:41.000Z,82
2023-03-02T21:44:30.000Z,87
2023-03-02T21:45:54.000Z,87
2023-03-02T21:47:58.000Z,86
2023-03-02T21:49:22.000Z,85
2023-03-02T21:51:26.000Z,86
2023-03-02T21:52:50.000Z,86
2023-03-02T21:54:54.000Z,87
2023-03-02T21:56:18.000Z,87
2023-03-02T21:58:22.000Z,87
2023-03-02T21:59:46.000Z,87
2023-03-02T22:01:51.000Z,85
2023-03-02T22:03:15.000Z,84
2023-03-02T22:05:19.000Z,85
2023-03-02T22:06:43.000Z,84
2023-03-02T22:08:47.000Z,84
2023-03-02T22:10:12.000Z,84
2023-03-02T22:12:15.000Z,85
2023-03-02T22:13:40.000Z,86
2023-03-02T22:15:43.000Z,86
2023-03-02T22:17:08.000Z,87
2023-03-02T22:19:12.000Z,86
2023-03-02T22:22:01.000Z,87
2023-03-02T22:23:25.000Z,88
2023-03-02T22:25:29.000Z,89
2023-03-02T22:26:53.000Z,89
2023-03-02T22:28:56.000Z,89
2023-03-02T22:30:21.000Z,89
2023-03-02T22:32:24.000Z,89
2023-03-02T22:33:49.000Z,87
2023-03-02T22:35:53.000Z,88
2023-03-02T22:37:17.000Z,89
2023-03-02T22:39:21.000Z,89
2023-03-02T22:40:45.000Z,89
2023-03-02T22:42:48.000Z,88
2023-03-02T22:44:13.000Z,89
2023-03-02T22:46:17.000Z,87
2023-03-02T22:47:41.000Z,87
2023-03-02T22:49:45.000Z,86
2023-03-02T22:51:10.000Z,88
2023-03-02T22:53:13.000Z,89
2023-03-02T22:54:38.000Z,87
2023-03-02T22:56:41.000Z,89
2023-03-02T22:59:30.000Z,88
2023-03-02T23:00:55.000Z,89
2023-03-02T23:02:58.000Z,89
2023-03-02T23:04:23.000Z,88
2023-03-02T23:06:27.000Z,89
2023-03-02T23:07:51.000Z,89
2023-03-02T23:09:55.000Z,90
2023-03-02T23:11:19.000Z,90
2023-03-02T23:13:22.000Z,89
2023-03-02T23:14:50.000Z,89
2023-03-02T23:16:53.000Z,88
2023-03-02T23:18:18.000Z,88
2023-03-02T23:20:22.000Z,90
2023-03-02T23:21:46.000Z,91
2023-03-02T23:23:50.000Z,91
2023-03-02T23:25:14.000Z,91
2023-03-02T23:27:18.000Z,89
2023-03-02T23:28:42.000Z,90
2023-03-02T23:30:45.000Z,92
2023-03-02T23:32:10.000Z,90
2023-03-02T23:34:13.000Z,90
2023-03-02T23:37:03.000Z,92
2023-03-02T23:38:27.000Z,91
2023-03-02T23:40:31.000Z,91
2023-03-02T23:41:55.000Z,91
2023-03-02T23:43:59.000Z,92
2023-03-02T23:45:23.000Z,92
2023-03-02T23:47:27.000Z,92
2023-03-02T23:48:51.000Z,91
2023-03-02T23:50:54.000Z,90
2023-03-02T23:52:19.000Z,89
2023-03-02T23:54:22.000Z,91
2023-03-02T23:55:47.000Z,93
2023-03-02T23:57:51.000Z,93
2023-03-02T23:59:15.000Z,92
